createdAt,value
2023-01-15T00:00:32.951Z,97743.38
2023-01-15T00:03:10.885Z,97856.56
2023-01-15T00:06:02.084Z,97733.16
2023-01-15T00:08:40.840Z,97763.78
2023-01-15T00:11:10.718Z,97770.59
2023-01-15T00:13:40.779Z,97807.75
2023-01-15T00:16:18.269Z,97807.88
2023-01-15T00:18:55.491Z,97704.31
2023-01-15T00:21:39.502Z,97826.97
2023-01-15T00:24:50.093Z,97820.94
2023-01-15T00:27:36.923Z,97712.06
2023-01-15T00:30:08.365Z,97821.63
2023-01-15T00:32:38.464Z,97774.97
2023-01-15T00:35:09.055Z,97777.91
2023-01-15T00:37:39.744Z,97793.72
2023-01-15T00:40:12.747Z,97821.72
2023-01-15T00:42:54.383Z,97764.47
2023-01-15T00:45:26.909Z,97813.97
2023-01-15T00:48:03.233Z,97821.06
2023-01-15T00:50:33.444Z,97810.56
2023-01-15T00:53:06.736Z,97779.53
2023-01-15T00:55:40.693Z,97838.97
2023-01-15T00:58:16.522Z,97853.50
2023-01-15T01:00:47.797Z,97749.81
2023-01-15T01:03:22.455Z,97785.53
2023-01-15T01:05:52.727Z,97775.22
2023-01-15T01:08:25.168Z,97859.59
2023-01-15T01:11:15.040Z,97771.44
2023-01-15T01:13:48.519Z,97838.00
2023-01-15T01:16:26.530Z,97770.78
2023-01-15T01:19:03.678Z,97694.84
2023-01-15T01:21:38.888Z,97878.16
2023-01-15T01:24:11.863Z,97865.44
2023-01-15T01:26:46.578Z,97870.69
2023-01-15T01:29:18.373Z,97802.91
2023-01-15T01:31:53.253Z,97860.75
2023-01-15T01:34:26.993Z,97776.75
2023-01-15T01:37:00.553Z,97866.22
2023-01-15T01:39:31.644Z,97880.72
2023-01-15T01:42:03.585Z,97814.16
2023-01-15T01:45:03.244Z,97872.19
2023-01-15T01:47:37.089Z,97825.00
2023-01-15T01:50:15.931Z,97784.97
2023-01-15T01:52:56.179Z,97748.91
2023-01-15T01:55:32.171Z,97767.97
2023-01-15T01:58:16.328Z,97770.78
2023-01-15T02:01:15.471Z,97784.59
2023-01-15T02:03:50.102Z,97884.53
2023-01-15T02:06:23.510Z,97744.47
2023-01-15T02:08:56.792Z,97867.50
2023-01-15T02:11:27.666Z,97744.50
2023-01-15T02:14:10.451Z,97892.19
2023-01-15T02:16:50.561Z,97886.09
2023-01-15T02:19:32.151Z,97775.31
2023-01-15T02:22:13.511Z,97846.22
2023-01-15T02:25:02.063Z,97773.31
2023-01-15T02:27:37.495Z,97838.50
2023-01-15T02:30:12.580Z,97900.06
2023-01-15T02:32:57.954Z,97825.66
2023-01-15T02:35:32.134Z,97826.00
2023-01-15T02:38:07.445Z,97747.25
2023-01-15T02:40:38.641Z,97867.88
2023-01-15T02:43:10.420Z,97899.09
2023-01-15T02:45:46.443Z,97808.28
2023-01-15T02:48:23.821Z,97863.94
2023-01-15T02:51:01.671Z,97796.78
2023-01-15T02:53:36.573Z,97735.09
2023-01-15T02:56:16.847Z,97883.47
2023-01-15T02:59:00.126Z,97788.00
2023-01-15T03:01:34.909Z,97734.44
2023-01-15T03:04:28.064Z,97901.94
2023-01-15T03:07:08.095Z,97772.88
2023-01-15T03:09:47.448Z,97896.59
2023-01-15T03:12:27.666Z,97896.34
2023-01-15T03:15:08.584Z,97819.56
2023-01-15T03:17:41.421Z,97880.75
2023-01-15T03:20:21.851Z,97871.50
2023-01-15T03:22:56.019Z,97872.00
2023-01-15T03:25:33.057Z,97745.28
2023-01-15T03:28:06.464Z,97882.72
2023-01-15T03:30:43.964Z,97828.63
2023-01-15T03:33:18.186Z,97886.53
2023-01-15T03:35:53.356Z,97783.81
2023-01-15T03:38:28.077Z,97818.91
2023-01-15T03:41:08.450Z,97728.94
2023-01-15T03:43:54.272Z,97806.72
2023-01-15T03:47:02.485Z,97727.09
2023-01-15T03:49:57.516Z,97726.59
2023-01-15T03:52:35.981Z,97823.50
2023-01-15T03:55:17.396Z,97890.75
2023-01-15T03:57:51.962Z,97714.56
2023-01-15T04:00:27.338Z,97819.38
2023-01-15T04:03:04.389Z,97865.22
2023-01-15T04:05:34.877Z,97855.84
2023-01-15T04:08:07.136Z,97771.22
2023-01-15T04:10:38.939Z,97835.50
2023-01-15T04:13:12.593Z,97793.84
2023-01-15T04:15:46.475Z,97776.44
2023-01-15T04:18:20.167Z,97808.91
2023-01-15T04:20:50.621Z,97834.16
2023-01-15T04:23:19.630Z,97820.53
2023-01-15T04:25:52.929Z,97874.75
2023-01-15T04:28:25.716Z,97744.84
2023-01-15T04:30:58.476Z,97801.03
2023-01-15T04:33:31.221Z,97852.06
2023-01-15T04:36:03.121Z,97845.66
2023-01-15T04:38:31.968Z,97844.41
2023-01-15T04:41:24.721Z,97785.81
2023-01-15T04:44:11.268Z,97861.81
2023-01-15T04:46:45.104Z,97862.81
2023-01-15T04:49:20.027Z,97812.34
2023-01-15T04:51:50.285Z,97879.06
2023-01-15T04:54:19.537Z,97820.69
2023-01-15T04:56:51.446Z,97789.63
2023-01-15T04:59:23.131Z,97766.22
2023-01-15T05:02:04.039Z,97809.03
2023-01-15T05:04:38.031Z,97819.97
2023-01-15T05:07:08.176Z,97690.25
2023-01-15T05:09:40.868Z,97848.91
2023-01-15T05:12:22.144Z,97791.06
2023-01-15T05:14:50.966Z,97833.88
2023-01-15T05:17:23.920Z,97765.53
2023-01-15T05:19:58.320Z,97734.50
2023-01-15T05:22:30.918Z,97823.13
2023-01-15T05:25:23.840Z,97826.00
2023-01-15T05:27:54.423Z,97746.84
2023-01-15T05:30:24.624Z,97707.81
2023-01-15T05:32:55.183Z,97740.56
2023-01-15T05:35:43.111Z,97777.09
2023-01-15T05:38:12.532Z,97775.94
2023-01-15T05:40:42.237Z,97722.53
2023-01-15T05:43:11.918Z,97676.41
2023-01-15T05:45:43.665Z,97776.31
2023-01-15T05:48:21.008Z,97823.03
2023-01-15T05:50:52.125Z,97782.81
2023-01-15T05:53:20.739Z,97812.25
2023-01-15T05:55:49.733Z,97822.09
2023-01-15T05:58:18.595Z,97660.22
2023-01-15T06:00:55.598Z,97731.91
2023-01-15T06:03:27.102Z,97838.13
2023-01-15T06:05:59.699Z,97788.22
2023-01-15T06:08:34.077Z,97663.34
2023-01-15T06:11:03.785Z,97814.88
2023-01-15T06:13:34.311Z,97773.47
2023-01-15T06:16:05.920Z,97756.88
2023-01-15T06:18:36.160Z,97814.47
2023-01-15T06:21:08.144Z,97813.75
2023-01-15T06:23:38.696Z,97788.81
2023-01-15T06:26:16.729Z,97713.28
2023-01-15T06:28:57.053Z,97757.56
2023-01-15T06:31:33.603Z,97812.75
2023-01-15T06:34:05.033Z,97792.16
2023-01-15T06:36:38.859Z,97712.31
2023-01-15T06:39:14.686Z,97757.44
2023-01-15T06:42:01.649Z,97721.44
2023-01-15T06:44:48.377Z,97796.03
2023-01-15T06:47:29.496Z,97793.47
2023-01-15T06:50:00.172Z,97617.13
2023-01-15T06:52:32.272Z,97789.16
2023-01-15T06:55:00.852Z,97753.16
2023-01-15T06:57:32.712Z,97762.84
2023-01-15T07:00:04.562Z,97624.88
2023-01-15T07:02:38.125Z,97779.72
2023-01-15T07:05:10.497Z,97781.28
2023-01-15T07:07:41.568Z,97686.31
2023-01-15T07:10:12.398Z,97763.91
2023-01-15T07:12:41.118Z,97778.16
2023-01-15T07:15:10.725Z,97700.56
2023-01-15T07:17:42.349Z,97782.56
2023-01-15T07:20:13.156Z,97689.56
2023-01-15T07:22:47.476Z,97809.50
2023-01-15T07:25:23.295Z,97688.72
2023-01-15T07:27:54.636Z,97721.03
2023-01-15T07:30:23.657Z,97677.66
2023-01-15T07:32:53.716Z,97807.94
2023-01-15T07:35:23.077Z,97701.03
2023-01-15T07:37:58.239Z,97628.66
2023-01-15T07:40:27.612Z,97807.22
2023-01-15T07:43:15.078Z,97812.88
2023-01-15T07:46:04.805Z,97800.28
2023-01-15T07:48:51.214Z,97734.91
2023-01-15T07:51:20.316Z,97718.53
2023-01-15T07:53:52.187Z,97749.94
2023-01-15T07:56:29.217Z,97643.81
2023-01-15T07:58:58.643Z,97772.91
2023-01-15T08:01:27.635Z,97751.16
2023-01-15T08:03:56.531Z,97719.06
2023-01-15T08:06:27.629Z,97825.22
2023-01-15T08:08:57.673Z,97797.84
2023-01-15T08:11:49.107Z,97714.66
2023-01-15T08:14:35.800Z,97830.50
2023-01-15T08:17:05.014Z,97819.41
2023-01-15T08:19:34.512Z,97747.81
2023-01-15T08:22:04.570Z,97802.13
2023-01-15T08:24:39.649Z,97721.03
2023-01-15T08:27:09.658Z,97788.94
2023-01-15T08:29:38.752Z,97779.09
2023-01-15T08:32:09.334Z,97778.97
2023-01-15T08:34:40.808Z,97775.66
2023-01-15T08:37:10.105Z,97786.72
2023-01-15T08:39:42.919Z,97710.66
2023-01-15T08:42:11.964Z,97763.69
2023-01-15T08:44:46.410Z,97813.31
2023-01-15T08:47:19.081Z,97814.47
2023-01-15T08:49:50.864Z,97776.31
2023-01-15T08:52:22.538Z,97792.34
2023-01-15T08:54:55.309Z,97789.44
2023-01-15T08:57:24.127Z,97813.25
2023-01-15T08:59:52.701Z,97798.16
2023-01-15T09:02:28.832Z,97795.16
2023-01-15T09:05:19.403Z,97783.13
2023-01-15T09:08:34.201Z,97660.50
2023-01-15T09:13:18.135Z,97821.28
2023-01-15T09:15:30.062Z,97636.16
2023-01-15T09:18:24.859Z,97684.13
2023-01-15T09:20:58.348Z,97742.00
2023-01-15T09:26:56.224Z,97695.09
2023-01-15T09:29:31.957Z,97814.88
2023-01-15T09:32:31.773Z,97692.53
2023-01-15T09:35:18.052Z,97779.56
2023-01-15T09:38:15.914Z,97663.47
2023-01-15T09:41:31.263Z,97787.66
2023-01-15T09:44:15.127Z,97757.03
2023-01-15T09:46:56.379Z,97815.25
2023-01-15T09:49:40.522Z,97812.63
2023-01-15T09:52:35.369Z,97792.53
2023-01-15T09:55:20.620Z,97802.44
2023-01-15T09:57:54.775Z,97818.00
2023-01-15T10:00:28.356Z,97747.31
2023-01-15T10:03:02.131Z,97754.63
2023-01-15T10:05:43.461Z,97765.34
2023-01-15T10:08:30.361Z,97731.97
2023-01-15T10:12:02.885Z,97750.88
2023-01-15T10:15:02.673Z,97771.16
2023-01-15T10:17:53.867Z,97670.00
2023-01-15T10:21:05.796Z,97820.13
2023-01-15T10:23:49.776Z,97779.31
2023-01-15T10:26:36.213Z,97692.00
2023-01-15T10:29:20.681Z,97756.97
2023-01-15T10:31:54.426Z,97822.75
2023-01-15T10:35:10.719Z,97790.16
2023-01-15T10:40:47.755Z,97775.06
2023-01-15T10:43:24.771Z,97819.41
2023-01-15T10:45:58.456Z,97817.31
2023-01-15T10:48:33.054Z,97802.69
2023-01-15T10:51:07.510Z,97761.56
2023-01-15T10:53:47.416Z,97830.03
2023-01-15T10:56:25.268Z,97747.50
2023-01-15T10:59:01.658Z,97818.88
2023-01-15T11:01:31.431Z,97820.28
2023-01-15T11:04:01.485Z,97827.09
2023-01-15T11:06:35.507Z,97806.16
2023-01-15T11:09:10.424Z,97824.25
2023-01-15T11:12:00.723Z,97836.31
2023-01-15T11:14:55.272Z,97832.59
2023-01-15T11:17:42.729Z,97761.72
2023-01-15T11:20:28.769Z,97757.63
2023-01-15T11:23:08.079Z,97794.91
2023-01-15T11:25:37.674Z,97827.09
2023-01-15T11:28:08.569Z,97833.31
2023-01-15T11:30:39.552Z,97826.63
2023-01-15T11:33:22.753Z,97821.97
2023-01-15T11:35:52.583Z,97812.91
2023-01-15T11:38:24.258Z,97764.47
2023-01-15T11:40:57.049Z,97734.00
2023-01-15T11:43:44.705Z,97787.53
2023-01-15T11:46:44.872Z,97797.44
2023-01-15T11:49:34.751Z,97794.66
2023-01-15T11:52:04.828Z,97786.50
2023-01-15T11:54:40.553Z,97776.59
2023-01-15T11:57:26.895Z,97732.78
2023-01-15T11:59:57.486Z,97746.53
2023-01-15T12:02:37.862Z,97766.22
2023-01-15T12:05:08.431Z,97722.72
2023-01-15T12:07:41.159Z,97727.03
2023-01-15T12:10:42.137Z,97725.97
2023-01-15T12:13:24.807Z,97716.88
2023-01-15T12:16:04.212Z,97676.22
2023-01-15T12:18:52.224Z,97718.38
2023-01-15T12:21:35.335Z,97701.84
2023-01-15T12:24:29.307Z,97684.59
2023-01-15T12:27:18.867Z,97696.16
2023-01-15T12:29:52.192Z,97637.66
2023-01-15T12:32:25.593Z,97696.59
2023-01-15T12:35:01.241Z,97691.22
2023-01-15T12:37:52.050Z,97719.97
2023-01-15T12:40:26.539Z,97715.47
2023-01-15T12:43:28.185Z,97694.88
2023-01-15T12:46:03.941Z,97699.72
2023-01-15T12:48:42.596Z,97676.41
2023-01-15T12:51:16.297Z,97663.00
2023-01-15T12:53:48.209Z,97606.91
2023-01-15T12:56:24.448Z,97664.38
2023-01-15T12:59:00.111Z,97660.53
2023-01-15T13:01:40.526Z,97645.06
2023-01-15T13:04:18.569Z,97623.78
2023-01-15T13:06:52.146Z,97655.75
2023-01-15T13:09:37.716Z,97615.56
2023-01-15T13:12:17.141Z,97615.91
2023-01-15T13:14:51.299Z,97620.38
2023-01-15T13:17:32.731Z,97589.97
2023-01-15T13:20:25.387Z,97563.44
2023-01-15T13:23:05.207Z,97559.19
2023-01-15T13:25:54.241Z,97611.13
2023-01-15T13:28:53.779Z,97466.81
2023-01-15T13:31:50.381Z,97598.69
2023-01-15T13:34:29.317Z,97598.16
2023-01-15T13:37:05.225Z,97563.34
2023-01-15T13:39:41.146Z,97510.03
2023-01-15T13:42:36.602Z,97569.59
2023-01-15T13:45:28.005Z,97543.84
2023-01-15T13:48:07.670Z,97550.31
2023-01-15T13:50:46.323Z,97493.28
2023-01-15T13:53:34.309Z,97421.50
2023-01-15T13:56:07.721Z,97474.88
2023-01-15T13:58:44.057Z,97435.53
2023-01-15T14:01:28.130Z,97496.16
2023-01-15T14:04:04.701Z,97490.16
2023-01-15T14:06:41.712Z,97327.88
2023-01-15T14:09:13.671Z,97465.63
2023-01-15T14:12:00.163Z,97443.88
2023-01-15T14:14:50.035Z,97477.50
2023-01-15T14:18:05.273Z,97463.00
2023-01-15T14:20:55.809Z,97457.16
2023-01-15T14:23:53.971Z,97419.84
2023-01-15T14:26:30.210Z,97398.88
2023-01-15T14:29:05.989Z,97350.63
2023-01-15T14:31:51.567Z,97422.53
2023-01-15T14:34:27.883Z,97388.53
2023-01-15T14:37:02.133Z,97349.41
2023-01-15T14:39:36.299Z,97397.94
2023-01-15T14:42:27.753Z,97364.50
2023-01-15T14:45:04.917Z,97319.22
2023-01-15T14:47:39.717Z,97362.88
2023-01-15T14:50:38.684Z,97232.94
2023-01-15T14:53:37.667Z,97329.38
2023-01-15T14:56:16.292Z,97325.50
2023-01-15T14:58:54.872Z,97338.47
2023-01-15T15:01:46.563Z,97298.72
2023-01-15T15:04:24.752Z,97268.63
2023-01-15T15:07:04.777Z,97132.06
2023-01-15T15:10:01.412Z,97287.09
2023-01-15T15:12:47.688Z,97160.56
2023-01-15T15:15:45.856Z,97157.97
2023-01-15T15:21:15.637Z,97257.88
2023-01-15T15:23:49.055Z,97243.53
2023-01-15T15:26:25.571Z,97229.97
2023-01-15T15:28:58.463Z,97228.09
2023-01-15T15:31:27.919Z,97214.44
2023-01-15T15:33:58.085Z,97208.28
2023-01-15T15:36:29.370Z,97214.16
2023-01-15T15:39:03.219Z,97203.19
2023-01-15T15:41:55.039Z,97205.13
2023-01-15T15:44:51.169Z,97191.50
2023-01-15T15:47:39.277Z,97187.97
2023-01-15T15:50:08.679Z,97162.44
2023-01-15T15:52:36.867Z,97180.66
2023-01-15T15:55:06.601Z,97183.22
2023-01-15T15:57:36.842Z,97153.03
2023-01-15T16:00:06.277Z,97184.59
2023-01-15T16:02:38.647Z,97159.03
2023-01-15T16:05:23.583Z,97152.25
2023-01-15T16:07:52.725Z,97141.28
2023-01-15T16:10:33.712Z,97115.75
2023-01-15T16:13:07.087Z,97144.56
2023-01-15T16:15:40.129Z,97136.91
2023-01-15T16:18:19.717Z,97118.78
2023-01-15T16:20:48.469Z,97138.94
2023-01-15T16:23:22.511Z,97132.28
2023-01-15T16:26:00.814Z,97132.56
2023-01-15T16:28:38.607Z,97128.75
2023-01-15T16:31:07.851Z,97133.47
2023-01-15T16:33:37.776Z,97129.53
2023-01-15T16:36:08.386Z,97124.44
2023-01-15T16:38:40.378Z,97128.59
2023-01-15T16:41:17.996Z,97126.22
2023-01-15T16:43:56.507Z,97109.81
2023-01-15T16:46:28.096Z,97131.03
2023-01-15T16:49:21.364Z,97123.09
2023-01-15T16:51:49.978Z,97117.50
2023-01-15T16:54:48.024Z,97113.94
2023-01-15T16:57:32.400Z,97120.19
2023-01-15T17:00:05.261Z,97121.03
2023-01-15T17:02:45.841Z,97122.22
2023-01-15T17:05:25.547Z,97125.28
2023-01-15T17:07:55.882Z,97123.94
2023-01-15T17:10:26.823Z,97121.91
2023-01-15T17:12:57.592Z,97115.81
2023-01-15T17:15:48.538Z,97130.69
2023-01-15T17:18:28.941Z,97135.44
2023-01-15T17:20:57.948Z,97133.22
2023-01-15T17:23:30.416Z,97129.13
2023-01-15T17:25:59.580Z,97137.78
2023-01-15T17:28:28.108Z,97132.69
2023-01-15T17:31:02.805Z,97133.56
2023-01-15T17:33:31.213Z,97135.91
2023-01-15T17:36:01.502Z,97135.06
2023-01-15T17:38:30.093Z,97136.06
2023-01-15T17:41:02.898Z,97132.69
2023-01-15T17:43:31.743Z,97145.56
2023-01-15T17:46:01.483Z,97145.22
2023-01-15T17:48:29.884Z,97148.44
2023-01-15T17:51:01.524Z,97142.34
2023-01-15T17:53:32.731Z,97135.28
2023-01-15T17:56:18.736Z,97148.78
2023-01-15T17:59:05.103Z,97148.28
2023-01-15T18:01:57.094Z,97162.66
2023-01-15T18:04:47.534Z,97164.50
2023-01-15T18:07:22.259Z,97163.94
2023-01-15T18:09:53.043Z,97152.50
2023-01-15T18:12:21.694Z,97173.13
2023-01-15T18:14:50.630Z,97181.88
2023-01-15T18:17:20.510Z,97174.16
2023-01-15T18:19:48.967Z,97174.31
2023-01-15T18:22:20.870Z,97185.47
2023-01-15T18:24:49.196Z,97182.63
2023-01-15T18:27:17.820Z,97186.59
2023-01-15T18:29:46.340Z,97180.06
2023-01-15T18:32:17.927Z,97180.06
2023-01-15T18:34:47.754Z,97187.34
2023-01-15T18:37:16.219Z,97200.53
2023-01-15T18:39:44.588Z,97183.78
2023-01-15T18:42:30.221Z,97192.25
2023-01-15T18:45:27.183Z,97198.19
2023-01-15T18:47:55.424Z,97208.56
2023-01-15T18:50:25.387Z,97210.59
2023-01-15T18:52:53.802Z,97216.59
2023-01-15T18:55:24.019Z,97191.41
2023-01-15T18:57:52.966Z,97217.44
2023-01-15T19:00:22.832Z,97235.03
2023-01-15T19:02:52.688Z,97213.69
2023-01-15T19:05:21.457Z,97222.13
2023-01-15T19:07:51.762Z,97260.53
2023-01-15T19:10:20.801Z,97272.81
2023-01-15T19:12:49.876Z,97267.56
2023-01-15T19:15:38.880Z,97213.88
2023-01-15T19:18:25.049Z,97274.16
2023-01-15T19:20:53.742Z,97281.44
2023-01-15T19:23:23.535Z,97277.66
2023-01-15T19:25:52.192Z,97283.44
2023-01-15T19:28:22.046Z,97294.13
2023-01-15T19:31:13.118Z,97305.09
2023-01-15T19:33:41.398Z,97301.28
2023-01-15T19:36:10.344Z,97307.31
2023-01-15T19:38:40.807Z,97295.13
2023-01-15T19:41:30.134Z,97324.59
2023-01-15T19:44:15.884Z,97329.84
2023-01-15T19:47:07.540Z,97333.53
2023-01-15T19:49:55.159Z,97322.03
2023-01-15T19:52:38.984Z,97357.91
2023-01-15T19:55:11.883Z,97372.28
2023-01-15T19:57:41.138Z,97323.66
2023-01-15T20:00:12.053Z,97384.78
2023-01-15T20:02:40.719Z,97386.34
2023-01-15T20:05:10.260Z,97359.84
2023-01-15T20:07:39.027Z,97365.09
2023-01-15T20:10:12.233Z,97358.16
2023-01-15T20:12:58.052Z,97409.19
2023-01-15T20:15:27.020Z,97433.56
2023-01-15T20:17:55.506Z,97446.97
2023-01-15T20:20:24.475Z,97434.31
2023-01-15T20:22:56.108Z,97462.53
2023-01-15T20:25:26.909Z,97475.28
2023-01-15T20:27:55.773Z,97482.28
2023-01-15T20:30:25.678Z,97494.47
2023-01-15T20:32:56.501Z,97509.28
2023-01-15T20:35:31.687Z,97519.09
2023-01-15T20:38:00.408Z,97520.84
2023-01-15T20:40:30.802Z,97530.41
2023-01-15T20:43:17.029Z,97541.13
2023-01-15T20:45:45.877Z,97544.31
2023-01-15T20:48:31.747Z,97549.06
2023-01-15T20:51:03.267Z,97529.09
2023-01-15T20:53:34.633Z,97525.38
2023-01-15T20:56:12.134Z,97542.00
2023-01-15T20:58:40.611Z,97563.50
2023-01-15T21:01:11.261Z,97574.00
2023-01-15T21:03:40.579Z,97580.63
2023-01-15T21:06:10.582Z,97577.31
2023-01-15T21:08:39.838Z,97587.19
2023-01-15T21:11:09.443Z,97582.69
2023-01-15T21:13:41.366Z,97599.00
2023-01-15T21:16:17.948Z,97580.53
2023-01-15T21:18:46.691Z,97606.78
2023-01-15T21:21:17.654Z,97606.63
2023-01-15T21:23:49.157Z,97610.25
2023-01-15T21:26:19.416Z,97612.66
2023-01-15T21:28:47.597Z,97608.16
2023-01-15T21:31:16.821Z,97620.88
2023-01-15T21:33:45.697Z,97617.66
2023-01-15T21:36:16.270Z,97614.63
2023-01-15T21:38:50.766Z,97607.38
2023-01-15T21:41:20.420Z,97572.34
2023-01-15T21:44:05.940Z,97615.28
2023-01-15T21:46:34.817Z,97616.50
2023-01-15T21:49:03.213Z,97620.25
2023-01-15T21:51:32.350Z,97622.38
2023-01-15T21:54:00.884Z,97567.41
2023-01-15T21:56:43.216Z,97633.94
2023-01-15T21:59:15.940Z,97642.28
2023-01-15T22:01:44.813Z,97646.63
2023-01-15T22:04:13.386Z,97652.78
2023-01-15T22:06:41.741Z,97640.75
2023-01-15T22:09:10.149Z,97644.59
2023-01-15T22:11:50.092Z,97673.47
2023-01-15T22:14:22.225Z,97684.41
2023-01-15T22:16:53.864Z,97696.91
2023-01-15T22:19:24.270Z,97705.44
2023-01-15T22:21:53.624Z,97697.78
2023-01-15T22:24:22.491Z,97708.41
2023-01-15T22:26:55.007Z,97720.69
2023-01-15T22:29:23.675Z,97744.13
2023-01-15T22:31:52.438Z,97737.50
2023-01-15T22:34:22.702Z,97740.13
2023-01-15T22:36:51.566Z,97737.31
2023-01-15T22:39:20.779Z,97750.94
2023-01-15T22:42:06.482Z,97768.22
2023-01-15T22:44:36.381Z,97779.56
2023-01-15T22:47:07.630Z,97785.25
2023-01-15T22:49:36.149Z,97802.41
2023-01-15T22:52:04.995Z,97807.25
2023-01-15T22:54:33.578Z,97807.44
2023-01-15T22:57:02.043Z,97804.88
2023-01-15T22:59:30.270Z,97819.84
2023-01-15T23:02:00.147Z,97817.50
2023-01-15T23:04:28.722Z,97821.69
2023-01-15T23:06:57.234Z,97834.84
2023-01-15T23:09:25.781Z,97829.47
2023-01-15T23:11:54.535Z,97850.28
2023-01-15T23:14:22.912Z,97840.84
2023-01-15T23:16:52.092Z,97859.72
2023-01-15T23:19:22.045Z,97863.38
2023-01-15T23:21:50.657Z,97862.47
2023-01-15T23:24:19.416Z,97866.13
2023-01-15T23:26:47.917Z,97858.59
2023-01-15T23:29:16.524Z,97882.38
2023-01-15T23:31:48.226Z,97869.97
2023-01-15T23:34:17.125Z,97892.53
2023-01-15T23:36:49.910Z,97900.31
2023-01-15T23:39:18.316Z,97896.47
2023-01-15T23:42:04.274Z,97926.19
2023-01-15T23:44:49.847Z,97918.75
2023-01-15T23:47:18.288Z,97900.16
2023-01-15T23:49:49.678Z,97936.69
2023-01-15T23:52:19.652Z,97935.69
2023-01-15T23:54:48.304Z,97950.28
2023-01-15T23:57:17.528Z,97931.34
2023-01-15T23:59:46.398Z,97949.69
